Time;durP1;ratioP1;P1;durP2;ratioP2;P2;SDS_P1;SDS_P2;PMS_P1;PMS_P2;Temp;Humidity;BMP_temperature;BMP_pressure;BME280_temperature;BME280_humidity;BME280_pressure;Samples;Min_cycle;Max_cycle;Signal;HPM_P1;HPM_P2
2021/12/10 05:05:18;;;;;;;4.53;4.13;;;-1.20;99.90;;;;;;6058030;23;20170;31
2021/12/10 05:07:47;;;;;;;5.25;4.13;;;-1.10;99.90;;;;;;4897125;29;20224;-68
2021/12/10 05:10:16;;;;;;;3.60;3.40;;;-1.10;99.90;;;;;;4898356;29;20288;-67
2021/12/10 05:12:43;;;;;;;4.20;3.90;;;-1.10;99.90;;;;;;4898709;29;20206;-67
2021/12/10 05:15:14;;;;;;;3.53;3.22;;;-1.10;99.90;;;;;;4898790;29;20226;-68
2021/12/10 05:17:42;;;;;;;3.38;3.15;;;-1.20;99.90;;;;;;4898949;29;20273;-67
2021/12/10 05:20:16;;;;;;;3.53;3.22;;;-1.20;99.90;;;;;;4898678;29;20221;-67
2021/12/10 05:22:47;;;;;;;3.15;2.85;;;-1.20;99.90;;;;;;4899134;29;20210;-68
2021/12/10 05:25:15;;;;;;;3.60;3.35;;;-1.20;99.90;;;;;;4898639;29;20664;-69
2021/12/10 05:27:42;;;;;;;4.20;3.90;;;-1.30;99.90;;;;;;4898679;29;20288;-71
2021/12/10 05:30:11;;;;;;;4.57;4.18;;;-1.30;99.90;;;;;;4898663;29;20232;-71
2021/12/10 05:32:38;;;;;;;3.80;3.60;;;-1.30;99.90;;;;;;4898551;29;20296;-70
2021/12/10 05:35:06;;;;;;;4.00;3.67;;;-1.30;99.90;;;;;;4898135;29;20312;-69
2021/12/10 05:37:33;;;;;;;3.60;3.33;;;-1.30;99.90;;;;;;4898575;29;20292;-71
2021/12/10 05:40:02;;;;;;;3.17;3.03;;;-1.30;99.90;;;;;;4898664;29;20208;-71
2021/12/10 05:42:29;;;;;;;3.22;3.03;;;-1.30;99.90;;;;;;4898637;29;20241;-71
2021/12/10 05:44:56;;;;;;;2.83;2.72;;;-1.30;99.90;;;;;;4898344;29;20313;-72
2021/12/10 05:47:23;;;;;;;2.80;2.60;;;-1.30;99.90;;;;;;4898586;29;20206;-71
2021/12/10 05:49:50;;;;;;;3.17;2.70;;;-1.30;99.90;;;;;;4898450;29;20296;-70
2021/12/10 05:52:16;;;;;;;3.00;2.80;;;-1.30;99.90;;;;;;4898418;29;20302;-70
2021/12/10 05:54:44;;;;;;;2.70;2.60;;;-1.30;99.90;;;;;;4898382;29;20293;-72
2021/12/10 05:57:12;;;;;;;3.08;2.88;;;-1.30;99.90;;;;;;4898178;29;20674;-69
2021/12/10 05:59:39;;;;;;;2.55;2.45;;;-1.20;99.90;;;;;;4898098;29;20768;-71
2021/12/10 06:02:07;;;;;;;2.70;2.58;;;-1.20;99.90;;;;;;4898441;29;20297;-71
2021/12/10 06:04:34;;;;;;;2.55;2.40;;;-1.20;99.90;;;;;;4898038;29;20782;-71
2021/12/10 06:07:02;;;;;;;3.78;3.47;;;-1.20;99.90;;;;;;4898157;29;20213;-70
2021/12/10 06:09:29;;;;;;;2.75;2.65;;;-1.20;99.90;;;;;;4898130;29;20245;-70
2021/12/10 06:11:56;;;;;;;3.53;3.22;;;-1.20;99.90;;;;;;4897987;29;20292;-70
2021/12/10 06:14:24;;;;;;;2.95;2.75;;;-1.20;99.90;;;;;;4898258;29;20293;-70
2021/12/10 06:16:52;;;;;;;3.20;3.00;;;-1.20;99.90;;;;;;4897935;29;20283;-70
2021/12/10 06:19:20;;;;;;;2.92;2.72;;;-1.20;99.90;;;;;;4898434;29;20289;-70
2021/12/10 06:21:50;;;;;;;7.80;5.15;;;-1.30;99.90;;;;;;4898201;29;20296;-70
2021/12/10 06:24:17;;;;;;;4.25;3.85;;;-1.30;99.90;;;;;;4901422;29;20207;-70
2021/12/10 06:26:44;;;;;;;6.28;5.18;;;-1.40;99.90;;;;;;4901860;29;20257;-70
2021/12/10 06:29:11;;;;;;;11.48;6.65;;;-1.40;99.90;;;;;;4901768;29;20206;-70
2021/12/10 06:31:40;;;;;;;12.32;7.43;;;-1.40;99.90;;;;;;4901716;29;20292;-70
2021/12/10 06:34:07;;;;;;;11.85;7.60;;;-1.40;99.90;;;;;;4901362;29;20297;-70
2021/12/10 06:36:35;;;;;;;12.30;7.63;;;-1.50;99.90;;;;;;4901623;29;20312;-70
2021/12/10 06:39:04;;;;;;;10.05;7.20;;;-1.50;99.90;;;;;;4901621;29;20237;-70
2021/12/10 06:41:31;;;;;;;8.98;6.70;;;-1.60;99.90;;;;;;4901599;29;20284;-70
2021/12/10 06:43:58;;;;;;;8.40;6.90;;;-1.60;99.90;;;;;;4901138;29;20222;-70
2021/12/10 06:46:25;;;;;;;11.02;6.60;;;-1.60;99.90;;;;;;4901434;29;20329;-70
2021/12/10 06:48:53;;;;;;;6.70;5.15;;;-1.70;99.90;;;;;;4901465;29;20309;-70
2021/12/10 06:51:22;;;;;;;6.20;5.57;;;-1.70;99.90;;;;;;4901420;29;20206;-70
2021/12/10 06:53:49;;;;;;;9.43;6.03;;;-1.70;99.90;;;;;;4901082;29;20757;-70
2021/12/10 06:56:18;;;;;;;8.23;5.72;;;-1.80;99.90;;;;;;4901312;29;20318;-70
2021/12/10 06:58:45;;;;;;;7.07;4.95;;;-1.90;99.90;;;;;;4901409;29;20246;-70
2021/12/10 07:01:17;;;;;;;5.50;5.00;;;-1.80;99.90;;;;;;4901058;29;20293;-70
2021/12/10 07:03:45;;;;;;;6.40;5.60;;;-1.80;99.90;;;;;;4901252;29;20221;-70
2021/12/10 07:06:13;;;;;;;6.45;4.88;;;-1.90;99.90;;;;;;4901063;29;20226;-70
2021/12/10 07:08:42;;;;;;;6.05;5.07;;;-1.80;99.90;;;;;;4901563;29;20391;-70
2021/12/10 07:11:11;;;;;;;5.15;4.45;;;-1.80;99.90;;;;;;4900978;29;20696;-70
2021/12/10 07:13:41;;;;;;;6.00;4.93;;;-1.70;99.90;;;;;;4901212;29;20202;-71
2021/12/10 07:16:08;;;;;;;5.80;5.20;;;-1.60;99.90;;;;;;4901127;29;20563;-71
2021/12/10 07:18:36;;;;;;;4.50;4.10;;;-1.60;99.90;;;;;;4901014;29;20289;-71
2021/12/10 07:21:04;;;;;;;4.50;4.15;;;-1.50;99.90;;;;;;4900664;29;20673;-70
2021/12/10 07:23:33;;;;;;;6.03;4.13;;;-1.50;99.90;;;;;;4900996;29;20232;-70
2021/12/10 07:26:00;;;;;;;3.55;3.25;;;-1.40;99.90;;;;;;4900890;29;20230;-71
2021/12/10 07:28:27;;;;;;;4.20;3.70;;;-1.40;99.90;;;;;;4901039;29;20258;-71
2021/12/10 07:30:54;;;;;;;3.35;3.10;;;-1.30;99.90;;;;;;4900982;29;20293;-71
2021/12/10 07:33:22;;;;;;;3.25;3.05;;;-1.30;99.90;;;;;;4900329;29;20636;-71
2021/12/10 07:35:50;;;;;;;3.63;3.40;;;-1.30;99.90;;;;;;4903727;29;20257;-70
2021/12/10 07:38:17;;;;;;;3.30;3.10;;;-1.30;99.90;;;;;;4906173;29;20289;-71
2021/12/10 07:40:46;;;;;;;3.60;3.30;;;-1.20;99.90;;;;;;4907320;29;20274;-71
2021/12/10 07:43:13;;;;;;;3.80;3.50;;;-1.20;99.90;;;;;;4906592;29;20201;-70
2021/12/10 07:45:41;;;;;;;3.55;3.30;;;-1.20;99.90;;;;;;4904972;29;20801;-70
2021/12/10 07:48:11;;;;;;;3.75;3.45;;;-1.10;99.90;;;;;;4901303;29;20298;-70
2021/12/10 07:50:42;;;;;;;4.03;3.72;;;-1.10;99.90;;;;;;4900711;29;20212;-70
2021/12/10 07:53:09;;;;;;;4.10;3.70;;;-1.10;99.90;;;;;;4900854;29;20297;-71
2021/12/10 07:55:39;;;;;;;3.65;3.28;;;-1.00;99.90;;;;;;4900864;29;20391;-70
2021/12/10 07:58:08;;;;;;;3.97;3.60;;;-1.00;99.90;;;;;;4900259;29;20297;-70
2021/12/10 08:00:37;;;;;;;2.95;2.75;;;-0.90;99.90;;;;;;4900127;29;20737;-70
2021/12/10 08:03:05;;;;;;;3.13;2.83;;;-0.90;99.90;;;;;;4900390;29;20237;-70
2021/12/10 08:05:32;;;;;;;3.22;3.03;;;-0.80;99.90;;;;;;4900414;29;20317;-70
2021/12/10 08:08:01;;;;;;;3.45;3.25;;;-0.80;99.90;;;;;;4899837;29;20305;-70
2021/12/10 08:10:30;;;;;;;3.25;2.95;;;-0.70;99.90;;;;;;4899907;29;20213;-70
2021/12/10 08:12:57;;;;;;;3.53;3.22;;;-0.60;99.90;;;;;;4900167;29;20229;-70
2021/12/10 08:15:25;;;;;;;3.70;3.50;;;-0.60;99.90;;;;;;4899713;29;20770;-70
2021/12/10 08:17:52;;;;;;;3.70;3.40;;;-0.60;99.90;;;;;;4900186;29;20292;-70
2021/12/10 08:20:21;;;;;;;3.85;3.53;;;-0.50;99.90;;;;;;4900001;29;20387;-70
2021/12/10 08:22:49;;;;;;;3.92;3.63;;;-0.50;99.90;;;;;;4899634;29;20686;-70
2021/12/10 08:25:17;;;;;;;4.50;4.10;;;-0.50;99.90;;;;;;4899487;29;20316;-70
2021/12/10 08:27:44;;;;;;;4.55;4.15;;;-0.50;99.90;;;;;;4899438;29;20212;-70
2021/12/10 08:30:14;;;;;;;5.28;4.80;;;-0.50;99.90;;;;;;4899894;29;20320;-70
2021/12/10 08:32:43;;;;;;;5.45;4.93;;;-0.50;99.90;;;;;;4899692;29;20246;-70
2021/12/10 08:35:13;;;;;;;6.30;5.70;;;-0.60;99.90;;;;;;4899807;29;20318;-70
2021/12/10 08:37:41;;;;;;;6.28;5.20;;;-0.60;99.90;;;;;;4900223;29;20376;-70
2021/12/10 08:40:13;;;;;;;7.85;5.03;;;-0.70;99.90;;;;;;4899523;29;20633;-70
2021/12/10 08:42:42;;;;;;;4.88;4.45;;;-0.60;99.90;;;;;;4899564;29;20620;-70
2021/12/10 08:45:09;;;;;;;5.20;4.70;;;-0.50;99.90;;;;;;4898781;29;20317;-70
2021/12/10 08:47:36;;;;;;;5.97;4.70;;;-0.50;99.90;;;;;;4899476;29;20210;-70
2021/12/10 08:50:07;;;;;;;4.82;4.28;;;-0.60;99.90;;;;;;4899192;29;20248;-70
2021/12/10 08:52:34;;;;;;;5.53;5.03;;;-0.50;99.90;;;;;;4899512;29;20194;-70
2021/12/10 08:55:02;;;;;;;4.72;4.22;;;-0.50;99.90;;;;;;4899374;29;20651;-70
2021/12/10 08:57:30;;;;;;;4.75;4.18;;;-0.40;99.90;;;;;;4899025;29;20551;-70
2021/12/10 08:59:57;;;;;;;3.70;3.35;;;-0.40;99.90;;;;;;4899237;29;20210;-70
2021/12/10 09:02:24;;;;;;;3.30;3.00;;;-0.30;99.90;;;;;;4899297;29;20206;-70
2021/12/10 09:04:51;;;;;;;4.53;3.35;;;-0.20;99.90;;;;;;4898971;29;20248;-70
2021/12/10 09:07:21;;;;;;;3.35;3.15;;;-0.20;99.90;;;;;;4898762;29;20308;-70
2021/12/10 09:09:48;;;;;;;4.53;3.85;;;-0.10;99.90;;;;;;4900144;29;20201;-70
2021/12/10 09:12:18;;;;;;;5.00;4.50;;;-0.10;99.90;;;;;;4899079;29;20297;-71
2021/12/10 09:14:49;;;;;;;4.65;4.25;;;-0.20;99.90;;;;;;4898920;29;20300;-71
2021/12/10 09:17:23;;;;;;;4.13;3.80;;;-0.30;99.90;;;;;;4898687;29;20190;-71
2021/12/10 09:19:51;;;;;;;4.05;3.72;;;-0.20;99.90;;;;;;4899157;29;20217;-71
2021/12/10 09:22:20;;;;;;;4.00;3.70;;;-0.10;99.90;;;;;;4899074;29;20209;-71
2021/12/10 09:24:48;;;;;;;3.78;3.45;;;0.00;99.90;;;;;;4899030;29;20309;-70
2021/12/10 09:27:15;;;;;;;4.30;3.92;;;0.00;99.90;;;;;;4899129;29;20646;-70
2021/12/10 09:29:46;;;;;;;3.85;3.45;;;0.10;99.90;;;;;;4899020;29;20296;-70
2021/12/10 09:32:16;;;;;;;3.65;3.35;;;0.10;99.90;;;;;;4898952;29;20190;-70
2021/12/10 09:34:43;;;;;;;3.67;3.38;;;0.10;99.90;;;;;;4898315;29;20745;-70
2021/12/10 09:37:11;;;;;;;3.20;3.00;;;0.20;99.90;;;;;;4898471;29;20301;-70
2021/12/10 09:39:39;;;;;;;3.67;3.38;;;0.20;99.90;;;;;;4898763;29;20228;-71
2021/12/10 09:42:07;;;;;;;3.67;3.38;;;0.20;99.90;;;;;;4898644;29;20240;-71
2021/12/10 09:44:35;;;;;;;3.13;2.92;;;0.20;99.90;;;;;;4898330;29;20726;-70
2021/12/10 09:47:02;;;;;;;3.45;3.25;;;0.30;99.90;;;;;;4898358;29;20689;-71
2021/12/10 09:49:29;;;;;;;4.00;3.65;;;0.30;99.90;;;;;;4898647;29;20206;-71
2021/12/10 09:51:58;;;;;;;4.80;3.50;;;0.40;99.90;;;;;;4898574;29;20294;-71
2021/12/10 09:54:27;;;;;;;3.97;3.67;;;0.50;99.90;;;;;;4898566;29;20293;-71
2021/12/10 09:56:59;;;;;;;3.63;3.33;;;0.50;99.90;;;;;;4899603;29;20316;-71
2021/12/10 09:59:26;;;;;;;3.80;3.50;;;0.50;99.90;;;;;;4902234;29;20718;-70
2021/12/10 10:01:55;;;;;;;3.42;3.13;;;0.60;99.90;;;;;;4902513;29;20292;-70
2021/12/10 10:04:25;;;;;;;3.67;3.38;;;0.60;99.90;;;;;;4902207;29;20248;-71
2021/12/10 10:06:54;;;;;;;3.55;3.28;;;0.70;99.90;;;;;;4902170;29;20587;-70
2021/12/10 10:09:22;;;;;;;2.95;2.75;;;0.60;99.90;;;;;;4902395;29;20296;-70
2021/12/10 10:11:53;;;;;;;3.67;3.33;;;0.60;99.90;;;;;;4902230;29;20230;-70
2021/12/10 10:14:22;;;;;;;2.90;2.70;;;0.60;99.90;;;;;;4902377;29;20202;-70
2021/12/10 10:16:50;;;;;;;3.88;3.05;;;0.60;99.90;;;;;;4901912;29;20236;-70
2021/12/10 10:19:18;;;;;;;3.47;3.15;;;0.60;99.90;;;;;;4902272;29;20301;-70
2021/12/10 10:21:49;;;;;;;4.40;3.72;;;0.60;99.90;;;;;;4901816;29;20627;-70
2021/12/10 10:24:18;;;;;;;6.22;5.05;;;0.50;99.90;;;;;;4902137;29;20214;-70
2021/12/10 10:26:49;;;;;;;5.00;4.28;;;0.50;99.90;;;;;;4901724;29;20314;-71
2021/12/10 10:29:20;;;;;;;6.47;4.30;;;0.40;99.90;;;;;;4901870;29;20204;-71
2021/12/10 10:31:52;;;;;;;3.85;3.55;;;0.40;99.90;;;;;;4901966;29;20228;-70
2021/12/10 10:34:23;;;;;;;5.78;4.20;;;0.40;99.90;;;;;;4901889;29;20269;-71
2021/12/10 10:36:50;;;;;;;4.22;3.85;;;0.30;99.90;;;;;;4901924;29;20226;-70
2021/12/10 10:39:21;;;;;;;4.32;3.90;;;0.40;99.90;;;;;;4901660;29;20296;-70
2021/12/10 10:41:52;;;;;;;3.83;3.53;;;0.40;99.90;;;;;;4901834;29;20277;-71
2021/12/10 10:44:19;;;;;;;4.53;4.13;;;0.40;99.90;;;;;;4901852;29;20217;-70
2021/12/10 10:46:49;;;;;;;4.22;3.58;;;0.40;99.90;;;;;;4901351;29;20316;-71
2021/12/10 10:49:32;;;;;;;4.68;3.95;;;0.40;99.90;;;;;;4901325;29;20282;-71
2021/12/10 10:52:21;;;;;;;4.28;3.88;;;0.40;99.90;;;;;;4901469;29;20654;-70
2021/12/10 10:54:50;;;;;;;5.75;3.88;;;0.40;99.90;;;;;;4901576;29;20254;-70
2021/12/10 10:57:20;;;;;;;3.38;3.17;;;0.40;99.90;;;;;;4901461;29;20257;-70
2021/12/10 10:59:49;;;;;;;3.75;3.45;;;0.40;99.90;;;;;;4900910;29;20212;-71
2021/12/10 11:02:18;;;;;;;4.95;4.30;;;0.40;99.90;;;;;;4901420;29;20265;-70
2021/12/10 11:04:49;;;;;;;4.35;3.95;;;0.40;99.90;;;;;;4901015;29;20313;-70
2021/12/10 11:07:20;;;;;;;5.07;3.88;;;0.50;99.90;;;;;;4900894;29;20210;-70
2021/12/10 11:09:52;;;;;;;5.32;4.40;;;0.50;99.90;;;;;;4900282;29;20674;-70
2021/12/10 11:12:21;;;;;;;4.07;3.67;;;0.60;99.90;;;;;;4901153;29;20190;-70
2021/12/10 11:14:50;;;;;;;3.47;3.13;;;0.50;99.90;;;;;;4901103;29;20206;-69
2021/12/10 11:17:26;;;;;;;3.42;3.17;;;0.60;99.90;;;;;;4901072;29;20205;-69
2021/12/10 11:19:56;;;;;;;2.75;2.53;;;0.60;99.90;;;;;;4900863;29;20284;-69
2021/12/10 11:22:23;;;;;;;2.97;2.78;;;0.60;99.90;;;;;;4901362;29;20202;-70
2021/12/10 11:24:55;;;;;;;2.80;2.53;;;0.70;99.90;;;;;;4900808;29;20317;-70
2021/12/10 11:27:27;;;;;;;2.78;2.58;;;0.70;99.90;;;;;;4900669;29;20655;-70
2021/12/10 11:29:56;;;;;;;2.85;2.65;;;0.80;99.90;;;;;;4900649;29;20281;-70
2021/12/10 11:32:34;;;;;;;3.17;2.92;;;0.80;99.90;;;;;;4900880;29;20216;-70
2021/12/10 11:35:11;;;;;;;2.47;2.38;;;0.90;99.90;;;;;;4900376;29;20616;-70
2021/12/10 11:38:00;;;;;;;2.53;2.40;;;0.90;99.90;;;;;;4900947;29;20277;-70
2021/12/10 11:40:44;;;;;;;2.63;2.53;;;0.90;99.90;;;;;;4899962;29;20202;-70
2021/12/10 11:43:21;;;;;;;2.65;2.40;;;1.00;99.90;;;;;;4900445;29;20190;-70
2021/12/10 11:46:04;;;;;;;2.13;1.98;;;0.90;99.90;;;;;;4900074;29;20316;-70
2021/12/10 11:48:35;;;;;;;2.20;2.10;;;1.00;99.90;;;;;;4901474;29;20198;-67
2021/12/10 11:51:07;;;;;;;2.35;2.15;;;1.10;99.90;;;;;;4900360;29;20285;-67
2021/12/10 11:53:42;;;;;;;1.98;1.88;;;1.20;99.90;;;;;;4900417;29;20217;-67
2021/12/10 12:02:49;;;;;;;1.60;1.60;;;1.10;99.90;;;;;;4899162;29;20233;-67
2021/12/10 12:05:21;;;;;;;2.00;1.90;;;1.00;99.90;;;;;;4900373;29;20268;-67
2021/12/10 12:07:50;;;;;;;2.00;1.90;;;0.90;99.90;;;;;;4899578;29;20214;-67
2021/12/10 12:10:23;;;;;;;1.45;1.45;;;0.80;99.90;;;;;;4899650;29;20701;-67
2021/12/10 12:12:52;;;;;;;1.77;1.77;;;0.80;99.90;;;;;;4899968;29;20222;-67
2021/12/10 12:15:27;;;;;;;2.53;1.80;;;0.80;99.90;;;;;;4899876;29;20313;-67
2021/12/10 12:17:56;;;;;;;1.52;1.52;;;0.90;99.90;;;;;;4899878;29;20763;-67
2021/12/10 12:20:31;;;;;;;1.73;1.73;;;0.90;99.90;;;;;;4898852;29;20383;-67
2021/12/10 12:25:47;;;;;;;1.50;1.40;;;1.00;99.90;;;;;;4899674;29;20237;-67
2021/12/10 12:28:17;;;;;;;1.70;1.60;;;1.00;99.90;;;;;;4899769;29;20300;-67
2021/12/10 12:30:57;;;;;;;1.30;1.30;;;1.10;99.90;;;;;;4899484;29;20752;-69
2021/12/10 12:33:25;;;;;;;1.40;1.40;;;1.20;99.90;;;;;;4899689;29;20285;-66
2021/12/10 12:35:55;;;;;;;1.58;1.58;;;1.20;99.90;;;;;;4899297;29;20702;-67
2021/12/10 12:38:27;;;;;;;1.58;1.58;;;1.20;99.90;;;;;;4899481;29;20292;-66
2021/12/10 12:41:10;;;;;;;1.95;1.95;;;1.20;99.90;;;;;;4899532;29;20604;-66
2021/12/10 12:43:37;;;;;;;1.88;1.77;;;1.10;99.90;;;;;;4899399;29;20271;-66
2021/12/10 12:46:05;;;;;;;2.05;1.95;;;1.00;99.90;;;;;;4899109;29;20312;-66
2021/12/10 12:48:33;;;;;;;1.90;1.90;;;1.00;99.90;;;;;;4899385;29;20205;-66
2021/12/10 12:51:11;;;;;;;2.05;2.05;;;1.00;99.90;;;;;;4899205;29;20650;-66
2021/12/10 12:53:38;;;;;;;2.08;2.08;;;1.00;99.90;;;;;;4899696;29;20220;-66
2021/12/10 12:56:10;;;;;;;1.90;1.80;;;0.90;99.90;;;;;;4898851;29;20664;-66
2021/12/10 12:58:42;;;;;;;2.03;2.03;;;0.90;99.90;;;;;;4899211;29;20190;-66
2021/12/10 13:01:17;;;;;;;1.80;1.80;;;0.90;99.90;;;;;;4899189;29;20187;-65
2021/12/10 13:03:49;;;;;;;1.80;1.80;;;0.80;99.90;;;;;;4899173;29;20281;-65
2021/12/10 13:06:22;;;;;;;1.60;1.60;;;0.80;99.90;;;;;;4898830;29;20320;-66
2021/12/10 13:08:58;;;;;;;1.92;1.92;;;0.80;99.90;;;;;;4899102;29;20273;-66
2021/12/10 13:11:29;;;;;;;1.65;1.55;;;0.80;99.90;;;;;;4899016;29;20286;-66
2021/12/10 13:14:03;;;;;;;1.67;1.60;;;0.80;99.90;;;;;;4898574;29;20598;-66
2021/12/10 13:16:39;;;;;;;1.65;1.58;;;0.90;99.90;;;;;;4899681;29;20229;-66
2021/12/10 13:19:08;;;;;;;1.40;1.40;;;1.00;99.90;;;;;;4898509;29;20647;-66
2021/12/10 13:21:36;;;;;;;1.30;1.30;;;1.00;99.90;;;;;;4898812;29;20728;-67
2021/12/10 13:24:04;;;;;;;1.40;1.40;;;1.00;99.90;;;;;;4898762;29;20252;-67
2021/12/10 13:26:31;;;;;;;1.20;1.20;;;1.00;99.90;;;;;;4898581;29;20230;-66
2021/12/10 13:28:58;;;;;;;1.40;1.40;;;1.10;99.90;;;;;;4898787;29;20202;-66
2021/12/10 13:31:25;;;;;;;1.40;1.40;;;1.10;99.90;;;;;;4898098;29;20666;-66
2021/12/10 13:33:52;;;;;;;1.50;1.50;;;1.10;99.90;;;;;;4898778;29;20297;-66
2021/12/10 13:36:19;;;;;;;1.70;1.60;;;1.10;99.90;;;;;;4898632;29;20308;-67
2021/12/10 13:38:51;;;;;;;1.67;1.67;;;1.00;99.90;;;;;;4898551;29;20206;-67
2021/12/10 13:41:21;;;;;;;2.55;2.42;;;1.10;99.90;;;;;;4899350;29;20250;-67
2021/12/10 13:43:52;;;;;;;2.50;2.33;;;1.10;99.90;;;;;;4898723;29;20603;-67
2021/12/10 13:46:22;;;;;;;3.25;2.88;;;1.20;99.90;;;;;;4899164;29;20596;-66
2021/12/10 13:48:52;;;;;;;3.00;2.80;;;1.30;99.90;;;;;;4898860;29;20666;-66
2021/12/10 13:51:23;;;;;;;3.88;2.70;;;1.50;99.90;;;;;;4898592;29;20639;-66
2021/12/10 13:54:05;;;;;;;2.50;2.40;;;1.60;99.90;;;;;;4899340;29;20190;-66
2021/12/10 13:56:33;;;;;;;2.65;2.45;;;1.70;99.90;;;;;;4899226;29;20317;-66
2021/12/10 13:59:02;;;;;;;2.33;2.22;;;1.70;99.90;;;;;;4898694;29;20206;-66
2021/12/10 14:01:33;;;;;;;2.58;2.38;;;1.70;99.90;;;;;;4898726;29;20210;-66
2021/12/10 14:04:03;;;;;;;2.47;2.38;;;1.70;99.90;;;;;;4898990;29;20194;-66
2021/12/10 14:06:43;;;;;;;2.75;2.65;;;1.70;99.90;;;;;;4898833;29;20234;-66
2021/12/10 14:09:19;;;;;;;2.10;2.00;;;1.60;99.90;;;;;;4898958;29;20664;-66
2021/12/10 14:12:26;;;;;;;1.88;1.77;;;1.60;99.90;;;;;;4898503;29;20181;-66
2021/12/10 14:15:17;;;;;;;1.85;1.75;;;1.60;99.90;;;;;;4898382;29;20190;-67
2021/12/10 14:17:52;;;;;;;1.60;1.50;;;1.60;99.90;;;;;;4899295;29;20198;-67
2021/12/10 14:20:22;;;;;;;1.83;1.73;;;1.60;99.90;;;;;;4898166;29;20194;-66
2021/12/10 14:22:51;;;;;;;1.67;1.58;;;1.50;99.90;;;;;;4898181;29;20256;-66
2021/12/10 14:25:25;;;;;;;1.40;1.30;;;1.60;99.90;;;;;;4898007;29;20313;-66
2021/12/10 14:27:59;;;;;;;1.77;1.65;;;1.50;99.90;;;;;;4898132;29;20281;-66
2021/12/10 14:30:31;;;;;;;1.33;1.30;;;1.50;99.90;;;;;;4897872;29;20712;-67
2021/12/10 14:33:08;;;;;;;1.20;1.20;;;1.40;99.90;;;;;;4898161;29;20277;-67
2021/12/10 14:35:54;;;;;;;1.40;1.40;;;1.40;99.90;;;;;;4897952;29;20281;-67
2021/12/10 14:38:35;;;;;;;1.42;1.33;;;1.40;99.90;;;;;;4896323;29;20297;-67
2021/12/10 14:41:17;;;;;;;1.33;1.27;;;1.40;99.90;;;;;;4898273;29;20281;-71
2021/12/10 14:43:49;;;;;;;1.10;1.10;;;1.50;99.90;;;;;;4898969;29;20281;-70
2021/12/10 14:46:19;;;;;;;1.20;1.20;;;1.50;99.90;;;;;;4901339;29;20237;-70
2021/12/10 14:49:20;;;;;;;1.13;1.13;;;1.50;99.90;;;;;;4902237;29;20206;-72
2021/12/10 14:52:07;;;;;;;1.75;1.70;;;1.60;99.90;;;;;;4903854;29;20225;-70
2021/12/10 14:54:51;;;;;;;1.30;1.30;;;1.60;99.90;;;;;;4901673;29;20566;-70
2021/12/10 14:57:20;;;;;;;1.40;1.40;;;1.70;99.90;;;;;;4901519;29;20221;-70
2021/12/10 14:59:47;;;;;;;1.08;1.08;;;1.60;99.90;;;;;;4901386;29;20246;-70
2021/12/10 15:02:19;;;;;;;1.25;1.25;;;1.60;99.90;;;;;;4901471;29;20326;-71
2021/12/10 15:04:51;;;;;;;1.13;1.13;;;1.60;99.90;;;;;;4901332;29;20186;-71
2021/12/10 15:07:24;;;;;;;1.15;1.15;;;1.60;99.90;;;;;;4901479;29;20326;-67
2021/12/10 15:10:14;;;;;;;0.85;0.85;;;1.60;99.90;;;;;;4901329;29;20222;-68
2021/12/10 15:13:13;;;;;;;0.93;0.93;;;1.60;99.90;;;;;;4900888;29;20554;-68
2021/12/10 15:15:58;;;;;;;0.95;0.95;;;1.60;99.90;;;;;;4892955;29;20237;-67
2021/12/10 15:18:33;;;;;;;0.80;0.80;;;1.60;99.90;;;;;;4900987;29;20281;-68
2021/12/10 15:21:16;;;;;;;0.90;0.90;;;1.50;99.90;;;;;;4901049;29;20297;-67
2021/12/10 15:23:47;;;;;;;0.73;0.73;;;1.50;99.90;;;;;;4901075;29;20277;-67
2021/12/10 15:26:14;;;;;;;0.80;0.80;;;1.50;99.90;;;;;;4900850;29;20324;-66
2021/12/10 15:28:44;;;;;;;0.75;0.75;;;1.50;99.90;;;;;;4900734;29;20212;-67
2021/12/10 15:31:12;;;;;;;0.70;0.70;;;1.50;99.90;;;;;;4900843;29;20288;-66
2021/12/10 15:33:39;;;;;;;0.70;0.70;;;1.50;99.90;;;;;;4900716;29;20210;-67
2021/12/10 15:36:08;;;;;;;0.70;0.70;;;1.50;99.90;;;;;;4900566;29;20252;-67
2021/12/10 15:38:38;;;;;;;0.70;0.70;;;1.60;99.90;;;;;;4900638;29;20210;-67
2021/12/10 15:41:08;;;;;;;0.70;0.70;;;1.60;99.90;;;;;;4900838;29;20195;-67
2021/12/10 15:43:38;;;;;;;0.85;0.85;;;1.60;99.90;;;;;;4900646;29;20297;-67
2021/12/10 15:46:10;;;;;;;0.90;0.90;;;1.60;99.90;;;;;;4900658;29;20276;-67
2021/12/10 15:48:40;;;;;;;0.75;0.75;;;1.60;99.90;;;;;;4900234;29;20572;-68
2021/12/10 15:51:11;;;;;;;0.80;0.80;;;1.70;99.90;;;;;;4900391;29;20285;-67
2021/12/10 15:53:42;;;;;;;1.27;1.20;;;1.70;99.90;;;;;;4901103;29;20273;-67
2021/12/10 15:56:13;;;;;;;0.90;0.90;;;1.70;99.90;;;;;;4900021;29;20233;-66
2021/12/10 15:58:40;;;;;;;1.10;1.10;;;1.70;99.90;;;;;;4900140;29;20273;-65
2021/12/10 16:01:13;;;;;;;0.90;0.90;;;1.70;99.90;;;;;;4900220;29;20620;-65
2021/12/10 16:03:56;;;;;;;1.08;1.08;;;1.80;99.90;;;;;;4900102;29;20273;-65
2021/12/10 16:06:24;;;;;;;1.27;1.27;;;1.80;99.90;;;;;;4899955;29;20316;-65
2021/12/10 16:08:53;;;;;;;1.05;0.93;;;1.80;99.90;;;;;;4900481;29;20190;-69
2021/12/10 16:11:22;;;;;;;0.70;0.70;;;1.80;99.90;;;;;;4900119;29;20205;-70
2021/12/10 16:13:50;;;;;;;1.10;1.10;;;1.90;99.90;;;;;;4899987;29;20668;-69
2021/12/10 16:16:22;;;;;;;1.33;1.30;;;1.90;99.90;;;;;;4899866;29;20312;-69
2021/12/10 16:18:52;;;;;;;1.30;1.30;;;1.80;99.90;;;;;;4899975;29;20201;-69
2021/12/10 16:21:26;;;;;;;1.10;1.10;;;1.80;99.90;;;;;;4900317;29;20614;-69
2021/12/10 16:23:57;;;;;;;1.17;1.17;;;1.80;99.90;;;;;;4899928;29;20630;-70
2021/12/10 16:26:29;;;;;;;1.60;1.50;;;1.80;99.90;;;;;;4899911;29;20234;-70
2021/12/10 16:29:02;;;;;;;1.33;1.33;;;1.80;99.90;;;;;;4899727;29;20688;-69
2021/12/10 16:31:36;;;;;;;1.15;1.15;;;1.80;99.90;;;;;;4899783;29;20242;-72
2021/12/10 16:34:11;;;;;;;1.17;1.17;;;1.70;99.90;;;;;;4899583;29;20198;-71
2021/12/10 16:36:39;;;;;;;1.35;1.35;;;1.70;99.90;;;;;;4899894;29;20225;-71
2021/12/10 16:39:07;;;;;;;1.30;1.30;;;1.70;99.90;;;;;;4900341;29;20289;-71
2021/12/10 16:41:41;;;;;;;1.08;1.08;;;1.70;99.90;;;;;;4899391;29;20753;-72
2021/12/10 16:44:13;;;;;;;1.23;1.23;;;1.70;99.90;;;;;;4899465;29;20281;-71
2021/12/10 16:46:46;;;;;;;1.08;1.08;;;1.70;99.90;;;;;;4899502;29;20324;-71
2021/12/10 16:49:17;;;;;;;1.10;1.10;;;1.70;99.90;;;;;;4899553;29;20225;-71
2021/12/10 16:51:47;;;;;;;1.00;1.00;;;1.70;99.90;;;;;;4899678;29;20205;-72
2021/12/10 16:54:17;;;;;;;1.05;1.05;;;1.70;99.90;;;;;;4899671;29;20297;-72
2021/12/10 16:56:47;;;;;;;1.00;1.00;;;1.70;99.90;;;;;;4899510;29;20316;-72
2021/12/10 16:59:15;;;;;;;1.25;1.17;;;1.70;99.90;;;;;;4899346;29;20281;-72
2021/12/10 17:01:47;;;;;;;1.10;1.10;;;1.70;99.90;;;;;;4899385;29;20206;-71
2021/12/10 17:04:17;;;;;;;1.10;1.10;;;1.70;99.90;;;;;;4899346;29;20194;-70
2021/12/10 17:06:50;;;;;;;1.17;1.17;;;1.70;99.90;;;;;;4898249;29;20769;-69
2021/12/10 17:09:18;;;;;;;1.10;1.10;;;1.70;99.90;;;;;;4898847;29;20195;-69
2021/12/10 17:11:48;;;;;;;1.20;1.20;;;1.70;99.90;;;;;;4899180;29;20293;-68
2021/12/10 17:14:18;;;;;;;0.80;0.80;;;1.70;99.90;;;;;;4899075;29;20288;-69
2021/12/10 17:16:50;;;;;;;0.90;0.90;;;1.70;99.90;;;;;;4899078;29;20250;-70
2021/12/10 17:19:21;;;;;;;1.00;1.00;;;1.70;99.90;;;;;;4898882;29;20666;-70
2021/12/10 17:21:51;;;;;;;1.35;1.35;;;1.70;99.90;;;;;;4898650;29;20191;-69
2021/12/10 17:24:22;;;;;;;1.50;1.17;;;1.70;99.90;;;;;;4898771;29;20285;-70
2021/12/10 17:26:52;;;;;;;1.13;1.13;;;1.70;99.90;;;;;;4898839;29;20236;-69
2021/12/10 17:29:26;;;;;;;2.13;2.03;;;1.70;99.90;;;;;;4898543;29;20206;-69
2021/12/10 17:31:57;;;;;;;1.83;1.73;;;1.60;99.90;;;;;;4898925;29;20189;-69
2021/12/10 17:34:27;;;;;;;2.15;2.03;;;1.70;99.90;;;;;;4898997;29;20201;-69
2021/12/10 17:36:57;;;;;;;1.75;1.52;;;1.70;99.90;;;;;;4898644;29;20328;-69
2021/12/10 17:39:28;;;;;;;2.03;1.92;;;1.70;99.90;;;;;;4899472;29;20190;-70
2021/12/10 17:41:57;;;;;;;2.00;1.90;;;1.70;99.90;;;;;;4898928;29;20599;-70
2021/12/10 17:44:24;;;;;;;1.83;1.70;;;1.70;99.90;;;;;;4898673;29;20206;-70
2021/12/10 17:46:57;;;;;;;2.10;2.00;;;1.70;99.90;;;;;;4898389;29;20712;-69
2021/12/10 17:49:27;;;;;;;1.60;1.50;;;1.70;99.90;;;;;;4898830;29;20190;-69
2021/12/10 17:51:54;;;;;;;1.40;1.40;;;1.70;99.90;;;;;;4898724;29;20214;-70
2021/12/10 17:54:24;;;;;;;1.40;1.40;;;1.70;99.90;;;;;;4898595;29;20301;-72
2021/12/10 17:56:52;;;;;;;1.23;1.23;;;1.70;99.90;;;;;;4898330;29;20655;-70
2021/12/10 17:59:22;;;;;;;1.10;1.10;;;1.70;99.90;;;;;;4898635;29;20296;-71
2021/12/10 18:01:53;;;;;;;1.10;1.10;;;1.80;99.90;;;;;;4898880;29;20602;-70
2021/12/10 18:04:22;;;;;;;1.63;1.55;;;1.80;99.90;;;;;;4898340;29;20201;-71
2021/12/10 18:06:53;;;;;;;1.80;1.70;;;1.80;99.90;;;;;;4897981;29;20329;-73
2021/12/10 18:09:22;;;;;;;1.73;1.63;;;1.80;99.90;;;;;;4898055;29;20662;-72
2021/12/10 18:11:54;;;;;;;1.67;1.60;;;1.80;99.90;;;;;;4898587;29;20626;-72
2021/12/10 18:14:21;;;;;;;1.77;1.67;;;1.80;99.90;;;;;;4900070;29;20698;-72
2021/12/10 18:16:49;;;;;;;1.40;1.40;;;1.80;99.90;;;;;;4902062;29;20230;-72
2021/12/10 18:19:17;;;;;;;1.33;1.33;;;1.80;99.90;;;;;;4905992;29;20235;-72
2021/12/10 18:21:48;;;;;;;1.20;1.20;;;1.80;99.90;;;;;;4906531;29;20278;-72
2021/12/10 18:24:18;;;;;;;1.17;1.17;;;1.80;99.90;;;;;;4903952;29;20198;-72